Bouzas — EAPC — position and weather

sailwx.info

Track history (hours):
 
Tides and Currents Weather Stations Pressure Air Temp Water Temp Dewpoint Dewpoint Depression Visibility Wind Speed Wind Dir Waves Ship Positions

Bouzas

Last reported at 2015-Jul-04 10:31 UTC. Time now 2015-Jul-04 13:43 UTC.
Position N 36°35' W 003°00'.

Length 142 m; draft 6 m.

Type: Cargo ship. MMSI: 224029000.

Date/timePositionNaut miles runAvg speedWind from/ knotsBaromVisibWave heightAir tempDewpointWater temp
2015-Jul-04 10:31N 36°35' W 003°00'1818.8
2015-Jul-04 09:33N 36°31' W 002°39'2318.4
2015-Jul-04 08:18N 36°27' W 002°10'7219.1
2015-Jul-04 04:33N 37°14' W 001°02'1919.1
2015-Jul-04 03:33N 37°26' W 000°45'1918.9
2015-Jul-04 02:33N 37°40' W 000°28'1918.5
2015-Jul-04 01:34N 37°56' W 000°15'1918.8
2015-Jul-04 00:33N 38°11' W 000°02'6618.9
2015-Jul-03 21:04N 39°08' E 000°41'4618.1
2015-Jul-03 18:33N 39°48' E 001°08'1818.2
2015-Jul-03 17:33N 40°04' E 001°20'1818.0
2015-Jul-03 16:33N 40°20' E 001°31'1818.3
2015-Jul-03 15:33N 40°36' E 001°42'1918.5
2015-Jul-03 14:33N 40°53' E 001°54'1918.9
2015-Jul-03 13:33N 41°09' E 002°05'13 1.4
2015-Jul-03 04:33N 41°21' E 002°10'9 8.7
2015-Jul-03 03:33N 41°12' E 002°08'1010.0
2015-Jul-03 02:33N 41°03' E 002°02'1010.1
2015-Jul-03 01:33N 40°55' E 001°56'1010.2
2015-Jul-03 00:33N 40°45' E 001°50'1010.4
2015-Jul-02 23:33N 40°36' E 001°44'1010.4
2015-Jul-02 22:33N 40°27' E 001°37'1010.4
2015-Jul-02 21:33N 40°18' E 001°31'1110.8
2015-Jul-02 20:33N 40°08' E 001°25'1110.7
2015-Jul-02 19:33N 39°59' E 001°18'1110.9
2015-Jul-02 18:33N 39°49' E 001°12'10711.3
2015-Jul-02 09:08N 38°16' E 000°05'711.2
2015-Jul-02 08:32N 38°10' E 000°01'1111.1
2015-Jul-02 07:33N 38°01' W 000°07'1111.0
2015-Jul-02 06:33N 37°52' W 000°15'1615.8
2015-Jul-02 05:33N 37°39' W 000°26'1818.0
2015-Jul-02 04:33N 37°26' W 000°42'1818.1
2015-Jul-02 03:33N 37°14' W 000°59'21517.8
2015-Jul-01 15:30N 35°60' W 005°10'45618.3
2015-Jun-30 14:33N 31°17' W 012°21'1818.1
2015-Jun-30 13:33N 31°06' W 012°37'1817.9
2015-Jun-30 12:33N 30°54' W 012°52'1818.0
2015-Jun-30 11:33N 30°42' W 013°08'1918.2
2015-Jun-30 10:32N 30°30' W 013°25'1818.3
2015-Jun-30 09:33N 30°18' W 013°41'2318.2
2015-Jun-30 08:16N 30°03' W 014°01'1318.0
2015-Jun-30 07:33N 29°55' W 014°12'1817.9
2015-Jun-30 06:33N 29°43' W 014°28'1817.9
2015-Jun-30 05:33N 29°31' W 014°43'1818.0
2015-Jun-30 04:33N 29°20' W 014°59'1818.1
2015-Jun-30 03:33N 29°08' W 015°15'1817.8
2015-Jun-30 02:33N 28°57' W 015°30'1817.9
2015-Jun-30 01:33N 28°45' W 015°46'1818.1
2015-Jun-30 00:33N 28°33' W 016°02'12 9.8
2015-Jun-29 23:18N 28°29' W 016°15'0 0.0
2015-Jun-29 22:30N 28°29' W 016°15'0 0.0
2015-Jun-29 21:33N 28°29' W 016°15'0 0.0
2015-Jun-29 20:33N 28°29' W 016°15'0 0.0
2015-Jun-29 17:09N 28°29' W 016°15'1 1.4
2015-Jun-29 16:33N 28°29' W 016°14'1716.4
2015-Jun-29 15:31N 28°23' W 015°56'1818.5
2015-Jun-29 14:32N 28°16' W 015°36'1414.5
2015-Jun-29 13:34N 28°07' W 015°24'2 1.7
2015-Jun-29 12:29N 28°09' W 015°25'0 0.0
2015-Jun-29 11:05N 28°09' W 015°25'0 0.0
2015-Jun-29 10:26N 28°09' W 015°25'0 0.0
2015-Jun-29 09:23N 28°09' W 015°25'0 0.0
2015-Jun-29 08:26N 28°09' W 015°25'0 0.0
2015-Jun-29 07:26N 28°09' W 015°25'1 0.7
2015-Jun-29 06:33N 28°08' W 015°25'1413.6
2015-Jun-29 05:33N 28°16' W 015°12'1919.2
2015-Jun-29 04:33N 28°30' W 014°57'1919.3
2015-Jun-29 03:33N 28°43' W 014°41'1919.4
2015-Jun-29 02:33N 28°57' W 014°25'1919.0
2015-Jun-29 01:33N 29°10' W 014°09'1919.2
2015-Jun-29 00:33N 29°23' W 013°53'1919.2
2015-Jun-28 23:33N 29°36' W 013°37'2119.2
2015-Jun-28 22:28N 29°50' W 013°19'7619.2
2015-Jun-28 18:31N 30°43' W 012°16'1818.9
2015-Jun-28 17:33N 30°55' W 012°00'2019.1
2015-Jun-28 16:30N 31°09' W 011°43'1818.9
2015-Jun-28 15:32N 31°21' W 011°28'1918.7
2015-Jun-28 14:29N 31°35' W 011°11'38618.5
2015-Jun-27 17:33N 35°59' W 005°31'2317.2
2015-Jun-27 16:11N 36°08' W 005°05'10817.7
2015-Jun-27 10:04N 36°34' W 002°55'918.4
2015-Jun-27 09:33N 36°32' W 002°43'1919.1
2015-Jun-27 08:33N 36°27' W 002°20'1817.6
2015-Jun-27 07:33N 36°33' W 001°60'2319.1
2015-Jun-27 06:20N 36°49' W 001°38'1418.5
2015-Jun-27 05:33N 36°59' W 001°25'1918.9
2015-Jun-27 04:33N 37°11' W 001°07'1918.9
2015-Jun-27 03:33N 37°23' W 000°49'1919.1
2015-Jun-27 02:34N 37°36' W 000°31'1918.8
2015-Jun-27 01:33N 37°52' W 000°18'1919.0
2015-Jun-27 00:33N 38°08' W 000°05'1919.0
2015-Jun-26 23:33N 38°24' E 000°08'1918.6
2015-Jun-26 22:33N 38°40' E 000°21'1818.2
2015-Jun-26 21:33N 38°56' E 000°32'1817.7
2015-Jun-26 20:32N 39°12' E 000°43'2517.9
2015-Jun-26 19:08N 39°34' E 000°58'1017.9
2015-Jun-26 18:33N 39°43' E 001°04'1817.9
2015-Jun-26 17:33N 39°59' E 001°15'1818.2
2015-Jun-26 16:33N 40°15' E 001°27'1918.6
2015-Jun-26 15:33N 40°31' E 001°38'1918.9
2015-Jun-26 14:33N 40°48' E 001°50'1918.9
2015-Jun-26 13:33N 41°04' E 002°02'1717.1
2015-Jun-26 12:33N 41°21' E 002°10'1 1.3
2015-Jun-26 11:29N 41°22' E 002°11'0 0.0
2015-Jun-26 06:06N 41°22' E 002°11'4 8.0
2015-Jun-26 05:33N 41°18' E 002°11'1717.2
2015-Jun-26 04:33N 41°02' E 002°01'1918.7
2015-Jun-26 03:34N 40°45' E 001°50'1918.9
2015-Jun-26 02:33N 40°29' E 001°38'1919.0
2015-Jun-26 01:33N 40°12' E 001°27'1918.9
2015-Jun-26 00:33N 39°55' E 001°16'5819.4
2015-Jun-25 21:33N 39°03' E 000°41'3919.3
2015-Jun-25 19:33N 38°29' E 000°17'1919.2
2015-Jun-25 18:33N 38°13' E 000°03'1919.2
2015-Jun-25 17:33N 37°58' W 000°11'1919.2
2015-Jun-25 16:33N 37°41' W 000°24'1818.7
2015-Jun-25 15:33N 37°27' W 000°39'1918.6
2015-Jun-25 14:33N 37°15' W 000°57'22318.6
2015-Jun-25 02:33N 35°58' W 005°18'  
Track history (hours):
 
Tides and Currents Weather Stations Pressure Air Temp Water Temp Dewpoint Dewpoint Depression Visibility Wind Speed Wind Dir Waves Ship Positions

Bouzas

Last reported at 2015-Jul-04 10:31 UTC. Time now 2015-Jul-04 13:43 UTC.
Position N 36°35' W 003°00'.

Length 142 m; draft 6 m.

Type: Cargo ship. MMSI: 224029000.

Date/timePositionNaut miles runAvg speedWind from/ knotsBaromVisibWave heightAir tempDewpointWater temp
2015-Jul-04 10:31N 36°35' W 003°00'1818.8
2015-Jul-04 09:33N 36°31' W 002°39'2318.4
2015-Jul-04 08:18N 36°27' W 002°10'7219.1
2015-Jul-04 04:33N 37°14' W 001°02'1919.1
2015-Jul-04 03:33N 37°26' W 000°45'1918.9
2015-Jul-04 02:33N 37°40' W 000°28'1918.5
2015-Jul-04 01:34N 37°56' W 000°15'1918.8
2015-Jul-04 00:33N 38°11' W 000°02'6618.9
2015-Jul-03 21:04N 39°08' E 000°41'4618.1
2015-Jul-03 18:33N 39°48' E 001°08'1818.2
2015-Jul-03 17:33N 40°04' E 001°20'1818.0
2015-Jul-03 16:33N 40°20' E 001°31'1818.3
2015-Jul-03 15:33N 40°36' E 001°42'1918.5
2015-Jul-03 14:33N 40°53' E 001°54'1918.9
2015-Jul-03 13:33N 41°09' E 002°05'13 1.4
2015-Jul-03 04:33N 41°21' E 002°10'9 8.7
2015-Jul-03 03:33N 41°12' E 002°08'1010.0
2015-Jul-03 02:33N 41°03' E 002°02'1010.1
2015-Jul-03 01:33N 40°55' E 001°56'1010.2
2015-Jul-03 00:33N 40°45' E 001°50'1010.4
2015-Jul-02 23:33N 40°36' E 001°44'1010.4
2015-Jul-02 22:33N 40°27' E 001°37'1010.4
2015-Jul-02 21:33N 40°18' E 001°31'1110.8
2015-Jul-02 20:33N 40°08' E 001°25'1110.7
2015-Jul-02 19:33N 39°59' E 001°18'1110.9
2015-Jul-02 18:33N 39°49' E 001°12'10711.3
2015-Jul-02 09:08N 38°16' E 000°05'711.2
2015-Jul-02 08:32N 38°10' E 000°01'1111.1
2015-Jul-02 07:33N 38°01' W 000°07'1111.0
2015-Jul-02 06:33N 37°52' W 000°15'1615.8
2015-Jul-02 05:33N 37°39' W 000°26'1818.0
2015-Jul-02 04:33N 37°26' W 000°42'1818.1
2015-Jul-02 03:33N 37°14' W 000°59'21517.8
2015-Jul-01 15:30N 35°60' W 005°10'45618.3
2015-Jun-30 14:33N 31°17' W 012°21'1818.1
2015-Jun-30 13:33N 31°06' W 012°37'1817.9
2015-Jun-30 12:33N 30°54' W 012°52'1818.0
2015-Jun-30 11:33N 30°42' W 013°08'1918.2
2015-Jun-30 10:32N 30°30' W 013°25'1818.3
2015-Jun-30 09:33N 30°18' W 013°41'2318.2
2015-Jun-30 08:16N 30°03' W 014°01'1318.0
2015-Jun-30 07:33N 29°55' W 014°12'1817.9
2015-Jun-30 06:33N 29°43' W 014°28'1817.9
2015-Jun-30 05:33N 29°31' W 014°43'1818.0
2015-Jun-30 04:33N 29°20' W 014°59'1818.1
2015-Jun-30 03:33N 29°08' W 015°15'1817.8
2015-Jun-30 02:33N 28°57' W 015°30'1817.9
2015-Jun-30 01:33N 28°45' W 015°46'1818.1
2015-Jun-30 00:33N 28°33' W 016°02'12 9.8
2015-Jun-29 23:18N 28°29' W 016°15'0 0.0
2015-Jun-29 22:30N 28°29' W 016°15'0 0.0
2015-Jun-29 21:33N 28°29' W 016°15'0 0.0
2015-Jun-29 20:33N 28°29' W 016°15'0 0.0
2015-Jun-29 17:09N 28°29' W 016°15'1 1.4
2015-Jun-29 16:33N 28°29' W 016°14'1716.4
2015-Jun-29 15:31N 28°23' W 015°56'1818.5
2015-Jun-29 14:32N 28°16' W 015°36'1414.5
2015-Jun-29 13:34N 28°07' W 015°24'2 1.7
2015-Jun-29 12:29N 28°09' W 015°25'0 0.0
2015-Jun-29 11:05N 28°09' W 015°25'0 0.0
2015-Jun-29 10:26N 28°09' W 015°25'0 0.0
2015-Jun-29 09:23N 28°09' W 015°25'0 0.0
2015-Jun-29 08:26N 28°09' W 015°25'0 0.0
2015-Jun-29 07:26N 28°09' W 015°25'1 0.7
2015-Jun-29 06:33N 28°08' W 015°25'1413.6
2015-Jun-29 05:33N 28°16' W 015°12'1919.2
2015-Jun-29 04:33N 28°30' W 014°57'1919.3
2015-Jun-29 03:33N 28°43' W 014°41'1919.4
2015-Jun-29 02:33N 28°57' W 014°25'1919.0
2015-Jun-29 01:33N 29°10' W 014°09'1919.2
2015-Jun-29 00:33N 29°23' W 013°53'1919.2
2015-Jun-28 23:33N 29°36' W 013°37'2119.2
2015-Jun-28 22:28N 29°50' W 013°19'7619.2
2015-Jun-28 18:31N 30°43' W 012°16'1818.9
2015-Jun-28 17:33N 30°55' W 012°00'2019.1
2015-Jun-28 16:30N 31°09' W 011°43'1818.9
2015-Jun-28 15:32N 31°21' W 011°28'1918.7
2015-Jun-28 14:29N 31°35' W 011°11'38618.5
2015-Jun-27 17:33N 35°59' W 005°31'2317.2
2015-Jun-27 16:11N 36°08' W 005°05'10817.7
2015-Jun-27 10:04N 36°34' W 002°55'918.4
2015-Jun-27 09:33N 36°32' W 002°43'1919.1
2015-Jun-27 08:33N 36°27' W 002°20'1817.6
2015-Jun-27 07:33N 36°33' W 001°60'2319.1
2015-Jun-27 06:20N 36°49' W 001°38'1418.5
2015-Jun-27 05:33N 36°59' W 001°25'1918.9
2015-Jun-27 04:33N 37°11' W 001°07'1918.9
2015-Jun-27 03:33N 37°23' W 000°49'1919.1
2015-Jun-27 02:34N 37°36' W 000°31'1918.8
2015-Jun-27 01:33N 37°52' W 000°18'1919.0
2015-Jun-27 00:33N 38°08' W 000°05'1919.0
2015-Jun-26 23:33N 38°24' E 000°08'1918.6
2015-Jun-26 22:33N 38°40' E 000°21'1818.2
2015-Jun-26 21:33N 38°56' E 000°32'1817.7
2015-Jun-26 20:32N 39°12' E 000°43'2517.9
2015-Jun-26 19:08N 39°34' E 000°58'1017.9
2015-Jun-26 18:33N 39°43' E 001°04'1817.9
2015-Jun-26 17:33N 39°59' E 001°15'1818.2
2015-Jun-26 16:33N 40°15' E 001°27'1918.6
2015-Jun-26 15:33N 40°31' E 001°38'1918.9
2015-Jun-26 14:33N 40°48' E 001°50'1918.9
2015-Jun-26 13:33N 41°04' E 002°02'1717.1
2015-Jun-26 12:33N 41°21' E 002°10'1 1.3
2015-Jun-26 11:29N 41°22' E 002°11'0 0.0
2015-Jun-26 06:06N 41°22' E 002°11'4 8.0
2015-Jun-26 05:33N 41°18' E 002°11'1717.2
2015-Jun-26 04:33N 41°02' E 002°01'1918.7
2015-Jun-26 03:34N 40°45' E 001°50'1918.9
2015-Jun-26 02:33N 40°29' E 001°38'1919.0
2015-Jun-26 01:33N 40°12' E 001°27'1918.9
2015-Jun-26 00:33N 39°55' E 001°16'5819.4
2015-Jun-25 21:33N 39°03' E 000°41'3919.3
2015-Jun-25 19:33N 38°29' E 000°17'1919.2
2015-Jun-25 18:33N 38°13' E 000°03'1919.2
2015-Jun-25 17:33N 37°58' W 000°11'1919.2
2015-Jun-25 16:33N 37°41' W 000°24'1818.7
2015-Jun-25 15:33N 37°27' W 000°39'1918.6
2015-Jun-25 14:33N 37°15' W 000°57'22318.6
2015-Jun-25 02:33N 35°58' W 005°18'  

Dump ship's entire track history